Time;durP1;ratioP1;P1;durP2;ratioP2;P2;SDS_P1;SDS_P2;PMS_P1;PMS_P2;Temp;Humidity;BMP_temperature;BMP_pressure;BME280_temperature;BME280_humidity;BME280_pressure;Samples;Min_cycle;Max_cycle;Signal;HPM_P1;HPM_P2
2022/09/11 00:01:14;;;;;;;87.17;48.57;;;17.40;99.90;;;;;;5048970;28;20448;-83
2022/09/11 00:03:44;;;;;;;89.53;45.20;;;17.40;99.90;;;;;;5049718;28;20487;-83
2022/09/11 00:06:15;;;;;;;82.33;39.10;;;17.30;99.90;;;;;;5049026;28;20404;-83
2022/09/11 00:08:41;;;;;;;84.17;41.20;;;17.30;99.90;;;;;;5049230;28;20439;-83
2022/09/11 00:11:15;;;;;;;86.83;46.67;;;17.30;99.90;;;;;;5048438;28;20408;-83
2022/09/11 00:13:41;;;;;;;86.30;46.87;;;17.30;99.90;;;;;;5049815;28;20384;-83
2022/09/11 00:16:21;;;;;;;91.50;55.87;;;17.20;99.90;;;;;;5048575;28;20400;-83
2022/09/11 00:18:48;;;;;;;90.33;55.17;;;17.20;99.90;;;;;;5048915;28;20192;-83
2022/09/11 00:21:15;;;;;;;92.30;56.53;;;17.20;99.90;;;;;;5048229;28;20444;-83
2022/09/11 00:23:40;;;;;;;90.87;57.23;;;17.20;99.90;;;;;;5032181;28;20404;-85
2022/09/11 00:26:06;;;;;;;92.00;58.10;;;17.20;99.90;;;;;;5030657;28;20404;-83
2022/09/11 00:28:35;;;;;;;89.00;57.67;;;17.20;99.90;;;;;;5048439;28;20185;-83
2022/09/11 00:31:07;;;;;;;91.50;56.43;;;17.20;99.90;;;;;;5048669;28;20192;-83
2022/09/11 00:33:34;;;;;;;90.50;60.30;;;17.10;99.90;;;;;;5049013;28;20431;-83
2022/09/11 00:36:40;;;;;;;94.77;63.20;;;17.00;99.90;;;;;;5048510;28;20404;-83
2022/09/11 00:39:13;;;;;;;88.53;50.37;;;17.10;99.90;;;;;;5025621;28;20416;-83
2022/09/11 00:41:45;;;;;;;94.50;56.67;;;17.00;99.90;;;;;;5048629;28;20463;-83
2022/09/11 00:44:17;;;;;;;93.67;54.53;;;17.00;99.90;;;;;;5048208;28;20423;-83
2022/09/11 00:47:04;;;;;;;91.87;54.97;;;17.00;99.90;;;;;;5047445;28;20385;-83
2022/09/11 00:49:43;;;;;;;89.27;51.13;;;17.00;99.90;;;;;;5047866;28;20388;-83
2022/09/11 00:52:12;;;;;;;88.13;44.60;;;16.90;99.90;;;;;;5030071;28;20415;-83
2022/09/11 00:54:48;;;;;;;88.37;43.73;;;17.00;99.90;;;;;;5047682;28;20404;-83
2022/09/11 00:57:19;;;;;;;86.27;44.13;;;17.00;99.90;;;;;;5048320;28;20446;-83
2022/09/11 00:59:49;;;;;;;89.93;60.30;;;16.90;99.90;;;;;;5047096;28;20403;-83
2022/09/11 01:02:18;;;;;;;85.77;44.97;;;16.90;99.90;;;;;;5047755;28;20479;-83
2022/09/11 01:04:44;;;;;;;86.70;45.60;;;16.90;99.90;;;;;;5047191;28;20455;-83
2022/09/11 01:07:12;;;;;;;91.10;52.30;;;16.90;99.90;;;;;;5047676;28;20486;-83
2022/09/11 01:09:38;;;;;;;89.77;52.20;;;16.90;99.90;;;;;;5029149;28;20429;-83
2022/09/11 01:12:18;;;;;;;93.47;56.03;;;16.90;99.90;;;;;;5047766;28;20400;-83
2022/09/11 01:15:02;;;;;;;90.57;47.60;;;16.80;99.90;;;;;;5029723;28;20169;-83
2022/09/11 01:17:34;;;;;;;90.70;43.10;;;16.90;99.90;;;;;;5047500;28;20538;-83
2022/09/11 01:20:22;;;;;;;92.73;47.73;;;16.90;99.90;;;;;;5030251;28;20416;-83
2022/09/11 01:23:15;;;;;;;87.77;38.13;;;16.90;99.90;;;;;;5046995;28;20432;-83
2022/09/11 01:26:25;;;;;;;86.30;31.30;;;16.90;99.90;;;;;;5029879;28;20900;-84
2022/09/11 01:29:09;;;;;;;85.63;29.87;;;16.80;99.90;;;;;;5046729;28;20450;-83
2022/09/11 01:31:41;;;;;;;82.23;25.43;;;16.90;99.90;;;;;;5047064;28;20381;-83
2022/09/11 01:34:19;;;;;;;78.90;24.90;;;16.80;99.90;;;;;;5029110;28;20411;-83
2022/09/11 01:36:56;;;;;;;79.27;23.87;;;16.80;99.90;;;;;;5030135;28;20412;-83
2022/09/11 01:39:26;;;;;;;79.60;23.07;;;16.90;99.90;;;;;;5046909;28;20380;-83
2022/09/11 01:42:01;;;;;;;87.13;25.00;;;16.90;99.90;;;;;;5046948;28;20456;-83
2022/09/11 01:44:28;;;;;;;81.77;22.27;;;16.90;99.90;;;;;;5046608;28;20467;-83
2022/09/11 01:46:54;;;;;;;79.13;21.27;;;16.90;99.90;;;;;;5046045;28;20519;-83
2022/09/11 01:49:42;;;;;;;83.47;24.00;;;16.90;99.90;;;;;;5046817;28;20428;-83
2022/09/11 01:52:11;;;;;;;80.77;21.80;;;16.90;99.90;;;;;;5045677;28;20397;-82
2022/09/11 01:54:50;;;;;;;86.57;23.97;;;17.00;99.90;;;;;;5046009;28;20408;-83
2022/09/11 01:57:28;;;;;;;85.80;26.00;;;17.00;99.90;;;;;;5046538;28;20943;-83
2022/09/11 01:59:59;;;;;;;89.13;27.07;;;17.00;99.90;;;;;;5047336;28;20396;-83
2022/09/11 02:02:41;;;;;;;84.97;26.10;;;17.00;99.90;;;;;;5049803;28;20463;-83
2022/09/11 02:05:14;;;;;;;83.90;25.43;;;17.10;99.90;;;;;;5051120;28;20470;-83
2022/09/11 02:07:53;;;;;;;84.90;25.00;;;17.10;99.90;;;;;;5050568;28;20430;-83
2022/09/11 02:10:29;;;;;;;86.70;28.20;;;17.10;99.90;;;;;;5050945;28;20856;-83
2022/09/11 02:13:10;;;;;;;86.27;29.40;;;17.20;99.90;;;;;;5033146;28;20400;-83
2022/09/11 02:15:53;;;;;;;90.50;28.40;;;17.20;99.90;;;;;;5034349;28;20467;-83
2022/09/11 02:18:34;;;;;;;91.87;32.97;;;17.10;99.90;;;;;;5050909;28;20430;-83
2022/09/11 02:21:00;;;;;;;93.50;33.70;;;17.10;99.90;;;;;;5051303;28;20504;-83
2022/09/11 02:23:26;;;;;;;94.70;35.10;;;17.10;99.90;;;;;;5033220;28;20416;-83
2022/09/11 02:25:52;;;;;;;95.60;33.00;;;17.10;99.90;;;;;;5050854;28;20769;-83
2022/09/11 02:28:27;;;;;;;93.30;36.57;;;17.10;99.90;;;;;;5149822;22;20253;-83
2022/09/11 02:30:53;;;;;;;93.40;36.23;;;17.10;99.90;;;;;;5033076;28;20187;-83
2022/09/11 02:33:34;;;;;;;93.07;33.20;;;17.10;99.90;;;;;;5032519;28;20998;-83
2022/09/11 02:36:30;;;;;;;94.70;32.87;;;17.20;99.90;;;;;;5050391;28;20153;-83
2022/09/11 02:39:23;;;;;;;101.57;53.57;;;17.10;99.90;;;;;;5043329;28;20410;-83
2022/09/11 02:42:17;;;;;;;105.43;65.53;;;17.00;99.90;;;;;;5033146;28;20476;-83
2022/09/11 02:45:27;;;;;;;106.90;64.70;;;16.90;99.90;;;;;;5049775;28;20385;-83
2022/09/11 02:47:56;;;;;;;105.50;62.93;;;16.90;99.90;;;;;;5050195;28;20408;-83
2022/09/11 02:50:28;;;;;;;115.43;71.13;;;17.00;99.90;;;;;;5032175;28;20443;-83
2022/09/11 02:53:14;;;;;;;111.90;70.73;;;17.00;99.90;;;;;;5050231;28;20408;-83
2022/09/11 02:56:00;;;;;;;108.50;57.97;;;16.90;99.90;;;;;;5050013;28;20388;-83
2022/09/11 02:58:33;;;;;;;113.43;57.00;;;17.10;99.90;;;;;;5049780;28;20561;-83
2022/09/11 03:01:00;;;;;;;112.93;55.10;;;17.10;99.90;;;;;;5031683;28;20436;-84
2022/09/11 03:03:26;;;;;;;111.37;58.23;;;17.10;99.90;;;;;;5049721;28;20399;-83
2022/09/11 03:05:52;;;;;;;109.27;53.93;;;17.10;99.90;;;;;;5049715;28;20431;-83
2022/09/11 03:08:18;;;;;;;108.80;54.10;;;17.10;99.90;;;;;;5049316;28;20233;-83
2022/09/11 03:10:45;;;;;;;108.17;57.77;;;17.10;99.90;;;;;;5049531;28;20450;-83
2022/09/11 03:13:12;;;;;;;109.93;59.07;;;17.10;99.90;;;;;;5048912;28;20188;-83
2022/09/11 03:15:37;;;;;;;114.77;67.20;;;17.00;99.90;;;;;;5049078;28;20405;-83
2022/09/11 03:18:04;;;;;;;115.30;65.87;;;17.00;99.90;;;;;;5031541;28;20492;-83
2022/09/11 03:20:30;;;;;;;117.67;76.40;;;16.90;99.90;;;;;;5049640;28;20169;-83
2022/09/11 03:22:55;;;;;;;126.13;89.93;;;16.90;99.90;;;;;;5049709;28;20405;-83
2022/09/11 03:25:23;;;;;;;121.17;78.07;;;17.00;99.90;;;;;;5051649;28;20464;-83
2022/09/11 03:27:49;;;;;;;122.40;76.00;;;16.90;99.90;;;;;;5049504;28;20217;-83
2022/09/11 03:30:14;;;;;;;120.40;74.93;;;17.00;99.90;;;;;;5048843;28;20412;-83
2022/09/11 03:32:40;;;;;;;123.83;76.83;;;17.00;99.90;;;;;;5048056;28;20172;-83
2022/09/11 03:35:06;;;;;;;122.53;81.07;;;17.00;99.90;;;;;;5048049;28;20170;-83
2022/09/11 03:37:31;;;;;;;118.67;74.03;;;17.00;99.90;;;;;;5048251;28;20213;-83
2022/09/11 03:39:57;;;;;;;131.23;87.70;;;17.00;99.90;;;;;;5048129;28;20492;-83
2022/09/11 03:42:23;;;;;;;126.83;89.80;;;17.00;99.90;;;;;;5047718;28;20185;-83
2022/09/11 03:44:48;;;;;;;120.27;78.77;;;17.00;99.90;;;;;;5030200;28;20232;-83
2022/09/11 03:47:14;;;;;;;130.40;85.27;;;17.00;99.90;;;;;;5047993;28;20180;-83
2022/09/11 03:49:39;;;;;;;131.93;93.33;;;17.00;99.90;;;;;;5047700;28;20166;-83
2022/09/11 03:52:05;;;;;;;131.27;96.30;;;16.90;99.90;;;;;;5048218;28;20171;-83
2022/09/11 03:54:31;;;;;;;135.07;90.10;;;16.90;99.90;;;;;;5047834;28;20172;-83
2022/09/11 03:56:57;;;;;;;119.33;76.90;;;17.00;99.90;;;;;;5029935;28;20197;-83
2022/09/11 03:59:24;;;;;;;128.43;78.57;;;17.00;99.90;;;;;;5048100;28;20396;-83
2022/09/11 04:01:51;;;;;;;120.27;74.07;;;17.00;99.90;;;;;;5047347;28;20505;-83
2022/09/11 04:04:17;;;;;;;115.23;62.77;;;17.00;99.90;;;;;;5047846;28;20436;-83
2022/09/11 04:06:43;;;;;;;115.80;61.37;;;17.00;99.90;;;;;;5030051;28;20954;-83
2022/09/11 04:09:12;;;;;;;117.93;68.27;;;17.00;99.90;;;;;;5047632;28;20165;-83
2022/09/11 04:11:38;;;;;;;119.03;60.70;;;17.00;99.90;;;;;;5047788;28;20903;-83
2022/09/11 04:14:05;;;;;;;115.57;51.87;;;17.00;99.90;;;;;;5048221;28;20400;-83
2022/09/11 04:16:32;;;;;;;117.53;59.57;;;17.00;99.90;;;;;;5047973;28;20404;-83
2022/09/11 04:19:01;;;;;;;129.80;64.93;;;17.00;99.90;;;;;;5047102;28;20468;-83
2022/09/11 04:21:27;;;;;;;116.23;65.33;;;17.00;99.90;;;;;;5029979;28;20469;-83
2022/09/11 04:23:54;;;;;;;120.87;68.30;;;16.90;99.90;;;;;;5047550;28;20409;-83
2022/09/11 04:26:23;;;;;;;130.83;85.23;;;17.00;99.90;;;;;;5047271;28;20675;-83
2022/09/11 04:28:49;;;;;;;127.00;81.40;;;16.90;99.90;;;;;;5030237;28;20432;-83
2022/09/11 04:31:16;;;;;;;130.30;87.63;;;16.90;99.90;;;;;;5047336;28;20405;-83
2022/09/11 04:33:43;;;;;;;141.80;105.00;;;16.80;99.90;;;;;;5047318;28;20413;-83
2022/09/11 04:36:12;;;;;;;130.50;91.47;;;16.80;99.90;;;;;;5047378;28;20410;-83
2022/09/11 04:38:41;;;;;;;129.70;89.13;;;16.80;99.90;;;;;;5047889;28;20427;-83
2022/09/11 04:41:07;;;;;;;137.10;102.77;;;16.80;99.90;;;;;;5111373;22;20498;-83
2022/09/11 04:43:35;;;;;;;136.70;97.93;;;16.70;99.90;;;;;;5038326;28;20405;-83
2022/09/11 04:46:06;;;;;;;140.57;100.57;;;16.70;99.90;;;;;;5021003;28;20411;-83
2022/09/11 04:48:32;;;;;;;134.27;95.20;;;16.80;99.90;;;;;;5038325;28;20417;-83
2022/09/11 04:51:01;;;;;;;134.53;93.33;;;16.80;99.90;;;;;;5038255;28;20462;-83
2022/09/11 04:53:27;;;;;;;131.43;82.17;;;16.80;99.90;;;;;;5038258;28;20392;-83
2022/09/11 04:56:04;;;;;;;127.90;85.63;;;16.80;99.90;;;;;;5038372;28;20423;-83
2022/09/11 04:58:31;;;;;;;125.03;79.07;;;16.90;99.90;;;;;;5037952;28;20772;-82
2022/09/11 05:00:57;;;;;;;122.97;76.13;;;16.80;99.90;;;;;;5037532;28;20444;-83
2022/09/11 05:03:23;;;;;;;125.47;83.40;;;16.80;99.90;;;;;;5037589;28;20772;-83
2022/09/11 05:05:49;;;;;;;130.90;91.87;;;16.80;99.90;;;;;;5019948;28;20864;-83
2022/09/11 05:08:17;;;;;;;130.40;88.57;;;16.70;99.90;;;;;;5037584;28;20423;-83
2022/09/11 05:10:44;;;;;;;122.37;78.63;;;16.70;99.90;;;;;;5037858;28;20428;-83
2022/09/11 05:13:10;;;;;;;118.93;81.63;;;16.80;99.90;;;;;;5037518;28;20879;-83
2022/09/11 05:15:36;;;;;;;115.67;77.40;;;16.70;99.90;;;;;;5037484;28;20400;-83
2022/09/11 05:18:03;;;;;;;127.83;93.63;;;16.70;99.90;;;;;;5037326;28;20757;-83
2022/09/11 05:20:29;;;;;;;125.40;83.97;;;16.70;99.90;;;;;;5019601;28;20404;-83
2022/09/11 05:22:57;;;;;;;120.70;73.53;;;16.70;99.90;;;;;;5037561;28;20438;-83
2022/09/11 05:25:24;;;;;;;124.60;68.47;;;16.80;99.90;;;;;;5037178;28;20400;-83
2022/09/11 05:27:50;;;;;;;118.17;79.23;;;16.80;99.90;;;;;;5019151;28;20431;-82
2022/09/11 05:30:15;;;;;;;121.93;70.30;;;16.80;99.90;;;;;;5037562;28;20459;-83
2022/09/11 05:32:41;;;;;;;125.43;79.40;;;16.80;99.90;;;;;;5036730;28;20454;-82
2022/09/11 05:35:07;;;;;;;135.53;86.87;;;16.70;99.90;;;;;;5036807;28;20169;-82
2022/09/11 05:37:32;;;;;;;124.33;83.77;;;16.70;99.90;;;;;;5040523;28;20263;-83
2022/09/11 05:39:58;;;;;;;133.10;90.97;;;16.70;99.90;;;;;;5023447;28;20412;-82
2022/09/11 05:42:27;;;;;;;135.97;90.30;;;16.70;99.90;;;;;;5023120;28;20283;-82
2022/09/11 05:44:53;;;;;;;138.97;99.50;;;16.60;99.90;;;;;;5040772;28;20156;-83
2022/09/11 05:47:19;;;;;;;134.20;88.17;;;16.70;99.90;;;;;;5023488;28;20513;-83
2022/09/11 05:49:45;;;;;;;134.40;87.03;;;16.70;99.90;;;;;;5023118;28;20784;-82
2022/09/11 05:52:10;;;;;;;132.40;87.63;;;16.70;99.90;;;;;;5040753;28;20166;-83
2022/09/11 05:54:36;;;;;;;129.63;88.67;;;16.70;99.90;;;;;;5041080;28;20536;-83
2022/09/11 05:57:01;;;;;;;133.90;97.10;;;16.70;99.90;;;;;;5040234;28;20189;-82
2022/09/11 05:59:27;;;;;;;133.10;95.73;;;16.60;99.90;;;;;;5040387;28;20196;-83
2022/09/11 06:01:53;;;;;;;129.53;96.00;;;16.60;99.90;;;;;;5039733;28;20552;-82
2022/09/11 06:04:19;;;;;;;133.77;94.80;;;16.60;99.90;;;;;;5040252;28;20215;-82
2022/09/11 06:06:48;;;;;;;136.13;109.73;;;16.60;99.90;;;;;;5040270;28;20486;-83
2022/09/11 06:09:14;;;;;;;140.60;106.67;;;16.60;99.90;;;;;;5041075;28;20168;-82
2022/09/11 06:11:39;;;;;;;135.30;94.77;;;16.60;99.90;;;;;;5040073;28;20433;-82
2022/09/11 06:14:05;;;;;;;140.87;103.17;;;16.70;99.90;;;;;;5039539;28;20405;-82
2022/09/11 06:16:31;;;;;;;132.53;88.50;;;16.70;99.90;;;;;;5022562;28;20180;-82
2022/09/11 06:18:57;;;;;;;128.17;95.00;;;16.70;99.90;;;;;;5040364;28;20173;-82
2022/09/11 06:21:25;;;;;;;147.40;94.03;;;16.70;99.90;;;;;;5039078;28;20454;-83
2022/09/11 06:23:52;;;;;;;140.13;95.97;;;16.60;99.90;;;;;;5039771;28;20200;-83
2022/09/11 06:26:23;;;;;;;138.43;96.70;;;16.60;99.90;;;;;;5040051;28;20396;-83
2022/09/11 06:28:50;;;;;;;139.27;98.50;;;16.70;99.90;;;;;;5039845;28;20423;-82
2022/09/11 06:31:19;;;;;;;144.17;105.40;;;16.70;99.90;;;;;;5040369;28;20816;-82
2022/09/11 06:33:46;;;;;;;139.77;92.50;;;16.70;99.90;;;;;;5039727;28;20407;-83
2022/09/11 06:36:18;;;;;;;140.83;96.23;;;16.70;99.90;;;;;;5021843;28;20411;-83
2022/09/11 06:38:45;;;;;;;124.50;91.50;;;16.70;99.90;;;;;;5039569;28;20420;-83
2022/09/11 06:41:13;;;;;;;146.97;90.53;;;16.70;99.90;;;;;;5039992;28;20457;-82
2022/09/11 06:43:40;;;;;;;139.03;95.70;;;16.70;99.90;;;;;;5039766;28;20407;-83
2022/09/11 06:46:12;;;;;;;131.50;96.90;;;16.60;99.90;;;;;;5039313;28;20405;-83
2022/09/11 06:48:39;;;;;;;135.80;87.33;;;16.70;99.90;;;;;;5021448;28;20424;-83
2022/09/11 06:51:08;;;;;;;136.27;94.30;;;16.80;99.90;;;;;;5040002;28;21034;-83
2022/09/11 06:53:34;;;;;;;129.40;79.50;;;16.80;99.90;;;;;;5039859;28;20423;-83
2022/09/11 06:56:01;;;;;;;129.90;79.43;;;16.90;99.90;;;;;;5040516;28;20400;-82
2022/09/11 06:58:28;;;;;;;139.90;78.77;;;16.90;99.90;;;;;;5039948;28;20181;-83
2022/09/11 07:01:03;;;;;;;132.97;77.23;;;16.90;99.90;;;;;;5040363;28;20400;-82
2022/09/11 07:03:29;;;;;;;128.33;71.30;;;17.00;99.90;;;;;;5022457;28;20388;-82
2022/09/11 07:05:55;;;;;;;127.10;67.00;;;17.00;99.90;;;;;;5041059;28;20492;-83
2022/09/11 07:08:20;;;;;;;127.57;70.13;;;17.10;99.90;;;;;;5039438;28;20744;-83
2022/09/11 07:10:46;;;;;;;118.53;55.67;;;17.10;99.90;;;;;;5021354;28;20536;-83
2022/09/11 07:13:12;;;;;;;117.67;57.87;;;17.20;99.90;;;;;;5020311;28;20636;-83
2022/09/11 07:15:38;;;;;;;114.93;57.37;;;17.20;99.90;;;;;;5020600;28;20661;-82
2022/09/11 07:18:04;;;;;;;120.30;61.37;;;17.10;99.90;;;;;;5038228;28;20499;-83
2022/09/11 07:20:30;;;;;;;112.43;50.50;;;17.20;99.90;;;;;;5038622;28;20514;-81
2022/09/11 07:22:57;;;;;;;120.60;53.60;;;17.20;99.90;;;;;;5019933;28;20466;-83
2022/09/11 07:25:23;;;;;;;118.83;48.30;;;17.20;99.90;;;;;;5037554;28;20486;-82
2022/09/11 07:27:50;;;;;;;122.77;55.83;;;17.10;99.90;;;;;;5037063;28;20420;-82
2022/09/11 07:30:17;;;;;;;115.80;53.63;;;17.10;99.90;;;;;;5038044;28;20400;-82
2022/09/11 07:32:43;;;;;;;112.50;53.50;;;17.10;99.90;;;;;;5020704;28;20958;-82
2022/09/11 07:35:09;;;;;;;118.83;62.40;;;17.20;99.90;;;;;;5037543;28;20401;-82
2022/09/11 07:37:35;;;;;;;107.90;55.97;;;17.20;99.90;;;;;;5019563;28;20445;-81
2022/09/11 07:40:01;;;;;;;114.67;65.33;;;17.30;99.90;;;;;;5037538;28;20768;-80
2022/09/11 07:42:27;;;;;;;115.33;61.03;;;17.30;99.90;;;;;;5037356;28;20181;-81
2022/09/11 07:44:54;;;;;;;112.67;49.67;;;17.40;99.90;;;;;;5037690;28;20815;-82
2022/09/11 07:47:20;;;;;;;110.87;49.40;;;17.40;99.90;;;;;;5019811;28;20443;-83
2022/09/11 07:49:46;;;;;;;110.07;40.20;;;17.40;99.90;;;;;;5019923;28;20408;-83
2022/09/11 07:52:17;;;;;;;107.33;34.77;;;17.50;99.90;;;;;;5020335;28;20416;-83
2022/09/11 07:54:43;;;;;;;108.17;34.67;;;17.50;99.90;;;;;;5037564;28;20568;-82
2022/09/11 07:57:08;;;;;;;108.70;31.27;;;17.50;99.90;;;;;;5037680;28;20428;-82
2022/09/11 07:59:34;;;;;;;100.30;28.90;;;17.50;99.90;;;;;;5036831;28;20641;-81
2022/09/11 08:02:00;;;;;;;103.73;30.90;;;17.50;99.90;;;;;;5037371;28;20633;-83
2022/09/11 08:04:26;;;;;;;102.50;34.13;;;17.50;99.90;;;;;;5019028;28;20236;-82
2022/09/11 08:06:52;;;;;;;100.60;35.40;;;17.40;99.90;;;;;;5037206;28;20181;-82
2022/09/11 08:09:19;;;;;;;100.13;37.37;;;17.50;99.90;;;;;;5037194;28;20431;-82
2022/09/11 08:11:47;;;;;;;101.60;35.97;;;17.50;99.90;;;;;;5036925;28;20407;-82
2022/09/11 08:14:14;;;;;;;105.20;34.40;;;17.50;99.90;;;;;;5019397;28;20440;-82
2022/09/11 08:16:40;;;;;;;103.97;41.50;;;17.40;99.90;;;;;;5019551;28;20435;-82
2022/09/11 08:19:07;;;;;;;103.17;38.97;;;17.30;99.90;;;;;;5019722;28;20431;-83
2022/09/11 08:21:34;;;;;;;105.47;41.77;;;17.40;99.90;;;;;;5037200;28;20448;-83
2022/09/11 08:23:59;;;;;;;101.87;36.97;;;17.40;99.90;;;;;;5037619;28;20392;-83
2022/09/11 08:26:29;;;;;;;104.97;34.13;;;17.40;99.90;;;;;;5036573;28;20430;-83
2022/09/11 08:28:56;;;;;;;104.10;37.50;;;17.40;99.90;;;;;;5036634;28;20252;-82
2022/09/11 08:31:27;;;;;;;103.37;40.43;;;17.40;99.90;;;;;;5018885;28;20435;-83
2022/09/11 08:33:56;;;;;;;106.43;41.13;;;17.30;99.90;;;;;;5018537;28;20753;-82
2022/09/11 08:36:22;;;;;;;102.10;37.27;;;17.40;99.90;;;;;;5036953;28;20452;-81
2022/09/11 08:38:50;;;;;;;104.10;38.93;;;17.40;99.90;;;;;;5018469;28;20436;-82
2022/09/11 08:41:28;;;;;;;108.80;50.40;;;17.40;99.90;;;;;;5037423;28;20989;-84
2022/09/11 08:44:03;;;;;;;111.27;52.27;;;17.50;99.90;;;;;;5038895;28;20817;-84
2022/09/11 08:46:35;;;;;;;109.23;44.07;;;17.50;99.90;;;;;;5036892;28;20415;-82
2022/09/11 08:49:26;;;;;;;102.37;36.77;;;17.70;99.90;;;;;;5035761;28;20399;-82
2022/09/11 08:51:56;;;;;;;99.50;32.57;;;17.60;99.90;;;;;;5035995;28;20391;-83
2022/09/11 08:54:30;;;;;;;101.77;35.30;;;17.60;99.90;;;;;;5018174;28;20405;-83
2022/09/11 08:57:09;;;;;;;100.87;35.77;;;17.70;99.90;;;;;;5035996;28;20423;-84
2022/09/11 08:59:49;;;;;;;104.53;37.77;;;17.70;99.90;;;;;;5018367;28;20403;-83
2022/09/11 09:02:26;;;;;;;98.00;31.70;;;17.70;99.90;;;;;;5036269;28;20436;-83
2022/09/11 09:05:13;;;;;;;101.57;36.13;;;17.70;99.90;;;;;;5036116;28;20403;-84
2022/09/11 09:07:51;;;;;;;108.87;43.80;;;17.60;99.90;;;;;;5017653;28;20428;-83
2022/09/11 09:10:49;;;;;;;108.73;42.93;;;17.70;99.90;;;;;;5017586;28;20420;-82
2022/09/11 09:13:47;;;;;;;111.80;42.97;;;17.70;99.90;;;;;;5035832;28;20384;-82
2022/09/11 09:16:33;;;;;;;110.67;36.83;;;17.80;99.90;;;;;;5034750;28;20787;-82
2022/09/11 09:19:13;;;;;;;102.30;33.27;;;17.90;99.90;;;;;;5017054;28;20400;-81
2022/09/11 09:21:57;;;;;;;105.80;34.13;;;18.00;99.90;;;;;;5017488;28;20451;-82
2022/09/11 09:24:26;;;;;;;102.60;34.17;;;18.10;99.90;;;;;;5035033;28;20389;-81
2022/09/11 09:26:55;;;;;;;107.40;33.17;;;18.30;99.90;;;;;;5035547;28;20481;-84
2022/09/11 09:29:24;;;;;;;108.03;30.87;;;18.50;99.90;;;;;;5035773;28;20440;-84
2022/09/11 09:31:53;;;;;;;102.87;26.33;;;18.60;99.90;;;;;;5035481;28;20692;-82
2022/09/11 09:34:21;;;;;;;105.07;30.53;;;18.80;99.90;;;;;;5034703;28;20451;-81
2022/09/11 09:36:59;;;;;;;98.93;30.50;;;18.90;99.90;;;;;;5034216;28;20404;-81
2022/09/11 09:39:25;;;;;;;93.57;27.57;;;18.90;99.90;;;;;;5035187;28;20401;-81
2022/09/11 09:42:09;;;;;;;95.50;27.77;;;19.00;99.90;;;;;;5035720;28;20557;-83
2022/09/11 09:45:00;;;;;;;97.80;24.83;;;19.00;99.90;;;;;;5018313;28;20977;-83
2022/09/11 09:47:26;;;;;;;97.43;23.87;;;19.10;99.90;;;;;;5038443;28;20423;-84
2022/09/11 09:49:52;;;;;;;89.93;18.90;;;19.20;99.90;;;;;;5040164;28;20392;-84
2022/09/11 09:52:23;;;;;;;93.20;22.17;;;19.30;99.90;;;;;;5022179;28;20415;-83
2022/09/11 09:55:01;;;;;;;93.77;20.00;;;19.40;99.90;;;;;;5038756;28;20392;-82
2022/09/11 09:57:35;;;;;;;91.80;20.00;;;19.30;99.90;;;;;;5036528;28;20419;-82
2022/09/11 10:00:06;;;;;;;95.17;22.27;;;19.40;99.90;;;;;;5036854;28;20384;-83
2022/09/11 10:02:34;;;;;;;96.83;20.23;;;19.40;99.90;;;;;;5039918;28;20452;-83
2022/09/11 10:05:28;;;;;;;92.77;20.70;;;19.30;99.90;;;;;;5041539;28;20606;-83
2022/09/11 10:07:55;;;;;;;93.47;22.33;;;19.30;99.90;;;;;;5037106;28;20948;-84
2022/09/11 10:10:39;;;;;;;90.53;20.83;;;19.10;99.90;;;;;;5040932;28;20403;-83
2022/09/11 10:13:23;;;;;;;88.83;17.80;;;19.20;99.90;;;;;;5021416;28;20408;-83
2022/09/11 10:15:51;;;;;;;92.57;19.97;;;19.30;99.90;;;;;;5022853;28;20417;-83
2022/09/11 10:18:22;;;;;;;98.07;20.67;;;19.30;99.90;;;;;;5041300;28;20923;-82
2022/09/11 10:20:48;;;;;;;94.33;20.57;;;19.50;99.90;;;;;;5022218;28;20417;-82
2022/09/11 10:23:25;;;;;;;92.40;20.60;;;19.50;99.90;;;;;;5024408;28;20462;-83
2022/09/11 10:25:51;;;;;;;92.53;22.20;;;19.60;99.90;;;;;;5043707;28;20173;-83
2022/09/11 10:28:32;;;;;;;91.30;23.07;;;19.70;99.90;;;;;;5044556;28;20452;-83
2022/09/11 10:31:01;;;;;;;93.37;23.03;;;19.70;99.90;;;;;;5024754;28;20404;-83
2022/09/11 10:33:35;;;;;;;97.90;26.17;;;19.80;99.90;;;;;;5027116;28;20418;-83
2022/09/11 10:36:04;;;;;;;93.20;25.57;;;19.90;99.90;;;;;;5043546;28;20487;-82
2022/09/11 10:38:36;;;;;;;87.37;29.70;;;20.30;99.90;;;;;;5043660;28;20511;-84
2022/09/11 10:41:25;;;;;;;90.03;25.40;;;20.50;99.90;;;;;;5116309;22;20487;-84
2022/09/11 10:44:09;;;;;;;88.90;23.73;;;21.00;99.90;;;;;;5047560;28;20373;-84
2022/09/11 10:46:42;;;;;;;89.80;21.23;;;21.10;99.90;;;;;;5030386;28;20403;-83
2022/09/11 10:49:10;;;;;;;91.10;24.10;;;21.20;99.90;;;;;;5048626;28;20428;-83
2022/09/11 10:51:38;;;;;;;85.60;23.93;;;21.00;99.90;;;;;;5049328;28;21004;-83
2022/09/11 10:54:28;;;;;;;86.77;20.90;;;21.10;99.90;;;;;;5050063;28;20420;-83
2022/09/11 10:57:13;;;;;;;87.40;20.73;;;21.20;99.90;;;;;;5050756;28;20412;-83
2022/09/11 10:59:51;;;;;;;93.47;26.50;;;21.10;99.90;;;;;;5050593;28;20404;-83
2022/09/11 11:02:32;;;;;;;84.23;19.60;;;21.20;99.90;;;;;;5049872;28;20533;-83
2022/09/11 11:05:03;;;;;;;88.30;19.17;;;21.50;99.90;;;;;;5049870;28;20391;-83
2022/09/11 11:08:00;;;;;;;85.60;16.10;;;21.60;99.90;;;;;;5032437;28;20444;-83
2022/09/11 11:10:50;;;;;;;84.60;16.60;;;21.70;99.90;;;;;;5049712;28;20452;-83
2022/09/11 11:13:24;;;;;;;86.67;17.37;;;21.80;99.90;;;;;;5050082;28;20389;-83
2022/09/11 11:16:10;;;;;;;87.00;18.23;;;21.70;99.90;;;;;;5048786;28;20972;-83
2022/09/11 11:18:46;;;;;;;84.73;15.90;;;21.80;96.20;;;;;;5050427;28;20420;-83
2022/09/11 11:21:31;;;;;;;83.50;16.70;;;21.60;99.90;;;;;;5050012;28;20442;-83
2022/09/11 11:24:31;;;;;;;87.40;18.10;;;21.50;98.70;;;;;;5049218;28;20407;-83
2022/09/11 11:27:20;;;;;;;87.70;17.60;;;21.40;99.90;;;;;;5049445;28;21018;-83
2022/09/11 11:30:09;;;;;;;85.87;18.63;;;21.30;99.90;;;;;;5049569;28;20431;-83
2022/09/11 11:32:35;;;;;;;86.40;18.20;;;21.30;99.90;;;;;;5031301;28;20419;-83
2022/09/11 11:35:43;;;;;;;86.43;16.70;;;21.50;99.90;;;;;;5048114;28;20410;-83
2022/09/11 11:38:19;;;;;;;83.37;15.87;;;21.70;99.90;;;;;;5049290;28;20452;-83
2022/09/11 11:40:52;;;;;;;85.43;15.60;;;22.00;99.90;;;;;;5048373;28;20423;-83
2022/09/11 11:43:23;;;;;;;84.80;15.80;;;22.10;93.90;;;;;;5048217;28;20412;-83
2022/09/11 11:46:01;;;;;;;82.17;15.13;;;21.80;91.00;;;;;;5049521;28;20376;-83
2022/09/11 11:48:38;;;;;;;82.27;14.73;;;21.70;93.40;;;;;;5048454;28;20408;-83
2022/09/11 11:51:20;;;;;;;80.93;14.93;;;22.10;92.80;;;;;;5048721;28;20442;-83
2022/09/11 11:54:08;;;;;;;79.00;12.10;;;22.20;73.60;;;;;;5049334;28;20376;-83
2022/09/11 11:56:45;;;;;;;76.97;12.27;;;22.20;64.40;;;;;;5048765;28;20410;-83
2022/09/11 11:59:49;;;;;;;77.27;13.20;;;22.40;65.30;;;;;;5048723;28;20388;-83
2022/09/11 12:02:25;;;;;;;77.87;11.60;;;22.70;67.00;;;;;;5047279;28;20455;-83
2022/09/11 12:05:19;;;;;;;77.97;11.70;;;22.90;61.00;;;;;;5047046;28;20388;-83
2022/09/11 12:07:46;;;;;;;79.73;13.17;;;23.10;52.70;;;;;;5047716;28;20499;-83
2022/09/11 12:10:39;;;;;;;79.57;12.33;;;23.10;47.90;;;;;;5048379;28;20400;-84
2022/09/11 12:13:11;;;;;;;80.47;12.53;;;23.10;39.10;;;;;;5047947;28;20802;-84
2022/09/11 12:15:37;;;;;;;75.70;11.40;;;23.00;43.30;;;;;;5047208;28;20472;-83
2022/09/11 12:18:23;;;;;;;75.07;10.80;;;23.20;41.10;;;;;;5047833;28;20424;-83
2022/09/11 12:20:50;;;;;;;78.37;15.00;;;23.20;37.60;;;;;;5047906;28;20401;-83
2022/09/11 12:23:57;;;;;;;77.50;14.03;;;23.20;33.40;;;;;;5047601;28;20412;-82
2022/09/11 12:26:24;;;;;;;80.37;17.03;;;23.30;35.20;;;;;;5043549;28;20396;-82
2022/09/11 12:29:12;;;;;;;80.40;18.70;;;23.40;31.90;;;;;;5026132;28;20971;-82
2022/09/11 12:32:03;;;;;;;79.37;14.57;;;23.40;29.00;;;;;;5043665;28;20411;-82
2022/09/11 12:34:37;;;;;;;81.80;17.93;;;23.50;38.60;;;;;;5026161;28;20416;-82
2022/09/11 12:37:11;;;;;;;76.33;14.43;;;23.40;25.30;;;;;;5025262;28;20441;-82
2022/09/11 12:39:49;;;;;;;75.40;14.77;;;23.40;23.50;;;;;;5043719;28;20399;-82
2022/09/11 12:42:25;;;;;;;75.57;14.40;;;23.40;21.80;;;;;;5043176;28;20986;-82
2022/09/11 12:44:51;;;;;;;79.93;13.77;;;23.40;20.30;;;;;;5026801;28;20467;-82
2022/09/11 12:47:27;;;;;;;75.10;14.20;;;23.40;20.80;;;;;;5043565;28;20949;-82